createdAt,value
2023-03-04T00:00:54.257Z,6.88
2023-03-04T00:05:50.813Z,6.88
2023-03-04T00:10:47.289Z,6.89
2023-03-04T00:15:43.814Z,6.88
2023-03-04T00:20:40.403Z,6.90
2023-03-04T00:25:36.890Z,6.92
2023-03-04T00:30:34.121Z,6.95
2023-03-04T00:35:30.610Z,6.95
2023-03-04T00:40:27.190Z,6.97
2023-03-04T00:45:23.812Z,6.96
2023-03-04T00:50:20.561Z,6.96
2023-03-04T00:55:17.186Z,6.99
2023-03-04T01:00:14.386Z,7.02
2023-03-04T01:05:11.289Z,7.05
2023-03-04T01:10:08.760Z,7.03
2023-03-04T01:15:06.201Z,6.99
2023-03-04T01:20:03.036Z,7.01
2023-03-04T01:24:59.488Z,7.04
2023-03-04T01:29:55.984Z,7.03
2023-03-04T01:34:52.420Z,7.04
2023-03-04T01:39:48.939Z,7.05
2023-03-04T01:44:46.300Z,7.10
2023-03-04T01:49:43.107Z,7.11
2023-03-04T01:54:40.387Z,7.12
2023-03-04T01:59:36.871Z,7.11
2023-03-04T02:04:34.792Z,7.11
2023-03-04T02:09:32.358Z,7.10
2023-03-04T02:14:28.932Z,7.09
2023-03-04T02:19:45.258Z,7.10
2023-03-04T02:24:46.376Z,7.13
2023-03-04T02:29:42.819Z,7.11
2023-03-04T02:34:46.339Z,7.14
2023-03-04T02:39:44.398Z,7.15
2023-03-04T02:44:47.659Z,7.11
2023-03-04T02:49:44.454Z,7.11
2023-03-04T02:54:41.019Z,7.10
2023-03-04T02:59:38.731Z,7.08
2023-03-04T03:04:37.406Z,7.09
2023-03-04T03:09:33.899Z,7.09
2023-03-04T03:14:30.411Z,7.08
2023-03-04T03:19:26.905Z,7.06
2023-03-04T03:24:23.393Z,7.12
2023-03-04T03:29:19.835Z,7.12
2023-03-04T03:34:16.263Z,7.13
2023-03-04T03:39:12.756Z,7.13
2023-03-04T03:44:09.214Z,7.11
2023-03-04T03:49:05.655Z,7.12
2023-03-04T03:54:02.136Z,7.16
2023-03-04T03:58:58.564Z,7.14
2023-03-04T04:03:55.081Z,7.12
2023-03-04T04:08:51.801Z,7.11
2023-03-04T04:13:48.246Z,7.12
2023-03-04T04:18:45.808Z,7.17
2023-03-04T04:23:42.256Z,7.14
2023-03-04T04:28:38.745Z,7.15
2023-03-04T04:33:35.962Z,7.09
2023-03-04T04:38:32.426Z,7.07
2023-03-04T04:43:28.901Z,7.11
2023-03-04T04:48:25.413Z,7.14
2023-03-04T04:53:21.863Z,7.15
2023-03-04T04:58:18.314Z,7.16
2023-03-04T05:03:18.253Z,7.17
2023-03-04T05:08:15.073Z,7.14
2023-03-04T05:13:11.507Z,7.18
2023-03-04T05:18:07.952Z,7.20
2023-03-04T05:23:04.489Z,7.21
2023-03-04T05:28:02.050Z,7.23
2023-03-04T05:32:58.568Z,7.22
2023-03-04T05:37:55.024Z,7.20
2023-03-04T05:42:51.587Z,7.19
2023-03-04T05:47:48.218Z,7.19
2023-03-04T05:52:44.659Z,7.11
2023-03-04T05:57:41.136Z,7.09
2023-03-04T06:02:37.730Z,7.06
2023-03-04T06:07:34.659Z,7.01
2023-03-04T06:12:30.987Z,7.04
2023-03-04T06:17:27.533Z,6.99
2023-03-04T06:22:24.182Z,6.93
2023-03-04T06:27:20.729Z,6.91
2023-03-04T06:32:17.365Z,6.85
2023-03-04T06:37:13.804Z,6.81
2023-03-04T06:42:10.283Z,6.78
2023-03-04T06:47:09.212Z,6.75
2023-03-04T06:52:05.857Z,6.76
2023-03-04T06:57:02.444Z,6.70
2023-03-04T07:01:58.907Z,6.78
2023-03-04T07:06:55.408Z,6.81
2023-03-04T07:11:52.090Z,6.84
2023-03-04T07:16:48.679Z,6.79
2023-03-04T07:46:53.341Z,6.71
2023-03-04T07:58:26.208Z,6.70
2023-03-04T08:03:41.495Z,6.62
2023-03-04T08:08:45.743Z,6.79
2023-03-04T08:20:32.422Z,6.73
2023-03-04T08:33:11.727Z,6.75
2023-03-04T08:42:36.126Z,6.81
2023-03-04T08:58:35.797Z,6.84
2023-03-04T09:03:47.978Z,6.87
2023-03-04T09:08:53.464Z,6.85
2023-03-04T09:14:01.341Z,7.00
2023-03-04T15:38:18.419Z,7.65
2023-03-04T15:43:30.339Z,7.41
2023-03-04T15:48:36.135Z,7.40
2023-03-04T15:54:04.748Z,7.53
2023-03-04T15:59:28.293Z,7.55
2023-03-04T16:11:31.608Z,7.39
2023-03-04T21:25:35.070Z,5.41
2023-03-04T21:30:31.550Z,5.43
2023-03-04T21:35:35.496Z,5.43
